Time;durP1;ratioP1;P1;durP2;ratioP2;P2;SDS_P1;SDS_P2;PMS_P1;PMS_P2;Temp;Humidity;BMP_temperature;BMP_pressure;BME280_temperature;BME280_humidity;BME280_pressure;Samples;Min_cycle;Max_cycle;Signal;HPM_P1;HPM_P2
2022/10/16 00:01:36;;;;;;;5.60;1.73;;;12.50;90.00;;;;;;5046514;28;20025;-51
2022/10/16 00:04:03;;;;;;;8.13;1.73;;;12.50;89.90;;;;;;5054471;28;20024;-53
2022/10/16 00:06:31;;;;;;;5.43;1.92;;;12.50;89.90;;;;;;5055372;28;20134;-51
2022/10/16 00:08:58;;;;;;;5.22;1.70;;;12.50;89.90;;;;;;5053310;28;20033;-50
2022/10/16 00:11:29;;;;;;;4.53;1.70;;;12.50;90.00;;;;;;5038695;28;20029;-54
2022/10/16 00:13:57;;;;;;;4.47;1.83;;;12.40;90.00;;;;;;5023850;28;20025;-55
2022/10/16 00:16:24;;;;;;;5.55;2.22;;;12.40;89.90;;;;;;5041614;28;20356;-53
2022/10/16 00:18:51;;;;;;;4.78;1.85;;;12.40;89.90;;;;;;5041424;28;20358;-55
2022/10/16 00:21:21;;;;;;;9.70;2.08;;;12.40;90.00;;;;;;5039344;28;20036;-54
2022/10/16 00:23:50;;;;;;;8.95;2.03;;;12.40;90.10;;;;;;5035299;28;20029;-56
2022/10/16 00:26:17;;;;;;;4.75;2.13;;;12.40;90.00;;;;;;5017326;28;20025;-53
2022/10/16 00:28:50;;;;;;;6.97;1.77;;;12.40;90.00;;;;;;5053390;28;20074;-51
2022/10/16 00:31:20;;;;;;;6.03;1.77;;;12.40;90.00;;;;;;5050684;28;20022;-51
2022/10/16 00:33:47;;;;;;;7.55;2.20;;;12.40;89.90;;;;;;5033390;28;20388;-49
2022/10/16 00:36:17;;;;;;;6.07;1.63;;;12.30;90.10;;;;;;5048480;28;20033;-56
2022/10/16 00:38:44;;;;;;;6.68;2.17;;;12.30;90.10;;;;;;5020639;28;20504;-50
2022/10/16 00:41:16;;;;;;;7.80;2.00;;;12.30;90.10;;;;;;5052914;28;20358;-53
2022/10/16 00:43:58;;;;;;;7.07;2.40;;;12.30;90.10;;;;;;5045527;28;20052;-51
2022/10/16 00:46:43;;;;;;;9.82;1.80;;;12.30;90.20;;;;;;5030737;28;20124;-55
2022/10/16 00:49:14;;;;;;;7.35;2.10;;;12.20;90.20;;;;;;5052106;28;20032;-54
2022/10/16 00:51:58;;;;;;;6.93;2.00;;;12.20;90.20;;;;;;5054844;28;20458;-51
2022/10/16 00:54:27;;;;;;;5.57;1.88;;;12.20;90.20;;;;;;5001369;28;20041;-49
2022/10/16 00:56:56;;;;;;;5.25;2.15;;;12.20;90.20;;;;;;5015245;28;20175;-49
2022/10/16 00:59:32;;;;;;;5.10;1.63;;;12.20;90.20;;;;;;5046478;28;20033;-54
2022/10/16 01:01:58;;;;;;;4.95;2.20;;;12.20;90.30;;;;;;5030640;28;20440;-53
2022/10/16 01:04:28;;;;;;;6.50;1.70;;;12.10;90.30;;;;;;5036380;28;20377;-51
2022/10/16 01:07:25;;;;;;;7.07;1.60;;;12.20;90.30;;;;;;5054989;28;20051;-53
2022/10/16 01:10:21;;;;;;;9.85;2.20;;;12.10;90.30;;;;;;5051642;28;20025;-49
2022/10/16 01:13:06;;;;;;;8.77;2.20;;;12.10;90.40;;;;;;5052234;28;20021;-55
2022/10/16 01:15:59;;;;;;;5.63;2.20;;;12.10;90.40;;;;;;5048948;28;20064;-55
2022/10/16 01:18:43;;;;;;;8.00;2.33;;;12.10;90.40;;;;;;5036401;28;20517;-49
2022/10/16 01:21:20;;;;;;;7.22;3.00;;;12.10;90.40;;;;;;5051713;28;20455;-53
2022/10/16 01:23:55;;;;;;;7.88;2.40;;;12.10;90.50;;;;;;5051568;28;20152;-52
2022/10/16 01:26:51;;;;;;;4.57;1.77;;;12.10;90.50;;;;;;5052586;28;20028;-53
2022/10/16 01:29:44;;;;;;;10.10;2.83;;;12.00;90.50;;;;;;4996714;28;20041;-53
2022/10/16 01:32:37;;;;;;;9.70;2.38;;;12.00;90.50;;;;;;5053467;28;20060;-51
2022/10/16 01:35:11;;;;;;;6.00;2.45;;;12.00;90.60;;;;;;5032640;28;20029;-50
2022/10/16 01:37:55;;;;;;;5.65;2.15;;;12.00;90.50;;;;;;5052461;28;20588;-52
2022/10/16 01:40:25;;;;;;;7.00;2.60;;;12.00;90.60;;;;;;5053967;28;20025;-54
2022/10/16 01:43:00;;;;;;;7.18;2.70;;;11.90;90.60;;;;;;5032491;28;20029;-52
2022/10/16 01:45:31;;;;;;;5.15;2.33;;;11.90;90.70;;;;;;5048905;28;20124;-50
2022/10/16 01:48:00;;;;;;;5.88;2.25;;;11.90;90.70;;;;;;5046355;28;20044;-51
2022/10/16 01:50:27;;;;;;;5.60;2.33;;;11.90;90.70;;;;;;5021983;28;20069;-52
2022/10/16 01:52:57;;;;;;;8.70;3.00;;;11.90;90.70;;;;;;5035830;28;20458;-51
2022/10/16 01:55:30;;;;;;;10.40;2.45;;;11.90;90.70;;;;;;5036261;28;20710;-51
2022/10/16 01:57:59;;;;;;;6.63;2.30;;;11.80;90.70;;;;;;5022518;28;20048;-54
2022/10/16 02:00:27;;;;;;;8.07;2.87;;;11.80;90.70;;;;;;5051627;28;20040;-51
2022/10/16 02:02:55;;;;;;;7.38;2.15;;;11.70;90.80;;;;;;5038992;28;20032;-51
2022/10/16 02:05:36;;;;;;;9.35;2.50;;;11.70;90.80;;;;;;5053709;28;20024;-52
2022/10/16 02:08:03;;;;;;;7.63;2.40;;;11.70;90.80;;;;;;5052298;28;20017;-51
2022/10/16 02:10:30;;;;;;;6.30;2.70;;;11.70;90.80;;;;;;5053581;28;20369;-55
2022/10/16 02:13:27;;;;;;;5.38;2.28;;;11.60;90.80;;;;;;5053701;28;20013;-54
2022/10/16 02:15:54;;;;;;;6.03;2.15;;;11.70;90.90;;;;;;5039254;28;20075;-50
2022/10/16 02:18:21;;;;;;;6.05;2.70;;;11.60;90.90;;;;;;5053472;28;20666;-55
2022/10/16 02:21:16;;;;;;;5.78;2.55;;;11.60;90.90;;;;;;5036960;28;20064;-55
2022/10/16 02:23:44;;;;;;;5.60;2.60;;;11.60;91.00;;;;;;5034437;28;20454;-54
2022/10/16 02:26:16;;;;;;;6.72;2.55;;;11.60;91.00;;;;;;5047819;28;20091;-55
2022/10/16 02:28:51;;;;;;;6.45;2.65;;;11.60;91.00;;;;;;5042269;28;20040;-54
2022/10/16 02:31:28;;;;;;;7.30;2.70;;;11.60;91.20;;;;;;5035931;28;20044;-51
2022/10/16 02:33:58;;;;;;;7.88;2.17;;;11.60;91.10;;;;;;5033088;28;20475;-53
2022/10/16 02:36:27;;;;;;;7.57;2.60;;;11.50;91.10;;;;;;5013203;28;20735;-50
2022/10/16 02:38:54;;;;;;;10.27;2.80;;;11.50;91.20;;;;;;5031608;28;20022;-50
2022/10/16 02:41:22;;;;;;;7.50;3.10;;;11.50;91.20;;;;;;5044076;28;20036;-53
2022/10/16 02:43:49;;;;;;;8.70;3.78;;;11.50;91.40;;;;;;5033502;28;20082;-53
2022/10/16 02:46:17;;;;;;;9.38;2.97;;;11.50;91.40;;;;;;5052949;28;20136;-54
2022/10/16 02:48:44;;;;;;;6.18;2.40;;;11.60;91.40;;;;;;5051764;28;20064;-51
2022/10/16 02:51:11;;;;;;;7.43;3.75;;;11.60;91.40;;;;;;5051730;28;20112;-48
2022/10/16 02:53:38;;;;;;;8.70;2.80;;;11.70;91.40;;;;;;5035117;28;20032;-52
2022/10/16 02:56:05;;;;;;;6.25;2.30;;;11.70;91.40;;;;;;5052055;28;20029;-51
2022/10/16 02:58:31;;;;;;;6.55;2.90;;;11.70;91.40;;;;;;5049117;28;20025;-52
2022/10/16 03:00:57;;;;;;;9.18;3.08;;;11.70;91.40;;;;;;5052360;28;20352;-53
2022/10/16 03:03:23;;;;;;;7.60;2.60;;;11.70;91.40;;;;;;5051736;28;20029;-50
2022/10/16 03:05:49;;;;;;;8.05;2.70;;;11.80;91.40;;;;;;5052569;28;20036;-53
2022/10/16 03:08:17;;;;;;;5.50;2.72;;;11.80;91.30;;;;;;5051725;28;20032;-53
2022/10/16 03:10:42;;;;;;;6.10;2.55;;;11.80;91.30;;;;;;5051109;28;20033;-52
2022/10/16 03:13:09;;;;;;;5.18;2.60;;;11.80;91.30;;;;;;5051793;28;20029;-51
2022/10/16 03:15:35;;;;;;;5.28;2.67;;;11.90;91.30;;;;;;5031843;28;20164;-50
2022/10/16 03:18:00;;;;;;;11.70;5.43;;;11.90;91.30;;;;;;5051233;28;20090;-51
2022/10/16 03:20:29;;;;;;;7.05;2.92;;;11.90;91.30;;;;;;5051538;28;20052;-50
2022/10/16 03:22:56;;;;;;;6.20;3.00;;;11.90;91.20;;;;;;5052795;28;20112;-51
2022/10/16 03:25:25;;;;;;;4.90;2.28;;;11.90;91.20;;;;;;5051614;28;20024;-53
2022/10/16 03:27:52;;;;;;;8.93;2.55;;;11.90;91.20;;;;;;5044077;28;20103;-53
2022/10/16 03:30:19;;;;;;;11.27;2.92;;;12.00;91.20;;;;;;5052643;28;20025;-53
2022/10/16 03:32:45;;;;;;;6.55;3.42;;;12.00;91.20;;;;;;5051479;28;20039;-50
2022/10/16 03:35:12;;;;;;;14.02;3.38;;;12.00;91.20;;;;;;5052331;28;20029;-49
2022/10/16 03:37:39;;;;;;;8.38;2.70;;;12.00;91.10;;;;;;5051409;28;20025;-51
2022/10/16 03:40:07;;;;;;;8.23;3.00;;;12.10;91.10;;;;;;5052282;28;20036;-49
2022/10/16 03:42:34;;;;;;;10.35;2.75;;;12.10;91.00;;;;;;5041637;28;20025;-53
2022/10/16 03:45:01;;;;;;;9.55;3.17;;;12.10;90.80;;;;;;5051811;28;20045;-51
2022/10/16 03:47:28;;;;;;;6.20;2.58;;;12.10;90.80;;;;;;5049116;28;20079;-53
2022/10/16 03:49:55;;;;;;;6.07;2.60;;;12.10;90.70;;;;;;5023452;28;20026;-48
2022/10/16 03:52:21;;;;;;;6.25;2.78;;;12.20;90.70;;;;;;5032210;28;20083;-49
2022/10/16 03:54:48;;;;;;;6.90;3.47;;;12.20;90.70;;;;;;5036463;28;20055;-49
2022/10/16 03:57:17;;;;;;;6.10;2.67;;;12.20;90.60;;;;;;5027957;28;20426;-51
2022/10/16 03:59:47;;;;;;;6.22;2.67;;;12.20;90.50;;;;;;5049622;28;20029;-49
2022/10/16 04:02:14;;;;;;;5.32;2.08;;;12.20;90.60;;;;;;5051131;28;20035;-54
2022/10/16 04:04:40;;;;;;;5.70;2.70;;;12.20;90.60;;;;;;5055981;28;20033;-58
2022/10/16 04:07:07;;;;;;;6.35;2.80;;;12.30;90.60;;;;;;5038245;28;20032;-58
2022/10/16 04:09:36;;;;;;;9.57;3.25;;;12.30;90.70;;;;;;5055073;28;20029;-55
2022/10/16 04:12:03;;;;;;;5.57;2.27;;;12.30;90.80;;;;;;5047217;28;20369;-54
2022/10/16 04:14:30;;;;;;;4.10;2.10;;;12.30;90.80;;;;;;5055034;28;20457;-57
2022/10/16 04:16:56;;;;;;;9.05;3.45;;;12.30;90.80;;;;;;5054745;28;20061;-53
2022/10/16 04:19:21;;;;;;;7.70;2.90;;;12.30;90.80;;;;;;5050142;28;20040;-51
2022/10/16 04:21:48;;;;;;;7.30;2.15;;;12.30;90.80;;;;;;5035820;28;20029;-50
2022/10/16 04:24:15;;;;;;;5.82;2.53;;;12.30;90.80;;;;;;5034270;28;20023;-53
2022/10/16 04:26:42;;;;;;;9.35;2.90;;;12.30;90.70;;;;;;5049715;28;20729;-51
2022/10/16 04:29:08;;;;;;;6.68;2.55;;;12.20;90.60;;;;;;5054231;28;20029;-51
2022/10/16 04:31:35;;;;;;;7.25;2.47;;;12.20;90.50;;;;;;5055606;28;20029;-55
2022/10/16 04:34:01;;;;;;;4.53;2.38;;;12.20;90.40;;;;;;5054470;28;20032;-55
2022/10/16 04:36:26;;;;;;;5.35;2.22;;;12.20;90.40;;;;;;5055357;28;20478;-51
2022/10/16 04:38:52;;;;;;;7.55;2.72;;;12.20;90.30;;;;;;5046077;28;20121;-53
2022/10/16 04:41:22;;;;;;;7.22;2.00;;;12.20;90.30;;;;;;5055105;28;20353;-52
2022/10/16 04:43:49;;;;;;;7.20;2.33;;;12.20;90.30;;;;;;5033490;28;20021;-53
2022/10/16 04:46:18;;;;;;;4.75;2.20;;;12.10;90.30;;;;;;5054556;28;20072;-55
2022/10/16 04:48:44;;;;;;;8.75;2.40;;;12.20;90.30;;;;;;5055070;28;20021;-53
2022/10/16 04:51:11;;;;;;;5.05;2.00;;;12.20;90.30;;;;;;5034353;28;20029;-52
2022/10/16 04:53:40;;;;;;;4.30;1.95;;;12.10;90.40;;;;;;5023307;28;20033;-54
2022/10/16 04:56:06;;;;;;;5.22;2.00;;;12.10;90.40;;;;;;5051601;28;20458;-52
2022/10/16 04:58:33;;;;;;;5.32;1.90;;;12.20;90.40;;;;;;5040145;28;20099;-53
2022/10/16 05:00:59;;;;;;;4.75;1.92;;;12.20;90.30;;;;;;5043269;28;20036;-54
2022/10/16 05:03:26;;;;;;;5.50;2.75;;;12.10;90.20;;;;;;5054995;28;20036;-51
2022/10/16 05:05:56;;;;;;;6.63;2.92;;;12.10;90.30;;;;;;5055029;28;20151;-53
2022/10/16 05:08:23;;;;;;;4.30;1.75;;;12.20;90.30;;;;;;5052652;28;20029;-52
2022/10/16 05:10:52;;;;;;;4.50;2.13;;;12.10;90.30;;;;;;5024485;28;20022;-55
2022/10/16 05:13:19;;;;;;;5.95;1.80;;;12.20;90.30;;;;;;5045719;28;20037;-53
2022/10/16 05:15:48;;;;;;;10.45;2.40;;;12.20;90.30;;;;;;5046726;28;20080;-56
2022/10/16 05:18:16;;;;;;;5.43;2.15;;;12.20;90.30;;;;;;5034737;28;20029;-53
2022/10/16 05:20:43;;;;;;;4.32;1.67;;;12.20;90.20;;;;;;5037394;28;20026;-52
2022/10/16 05:23:11;;;;;;;5.45;1.77;;;12.10;90.20;;;;;;5054140;28;20025;-49
2022/10/16 05:25:40;;;;;;;7.38;2.20;;;12.10;90.10;;;;;;5054395;28;20025;-54
2022/10/16 05:28:07;;;;;;;6.18;2.45;;;12.10;90.20;;;;;;5034192;28;20029;-53
2022/10/16 05:30:36;;;;;;;7.88;2.38;;;12.00;90.10;;;;;;5053099;28;20054;-51
2022/10/16 05:33:05;;;;;;;3.53;1.83;;;12.00;90.20;;;;;;5054391;28;20331;-53
2022/10/16 05:35:31;;;;;;;6.45;1.85;;;12.00;90.20;;;;;;5052190;28;20033;-53
2022/10/16 05:37:57;;;;;;;6.97;2.10;;;11.90;90.20;;;;;;5028644;28;20451;-50
2022/10/16 05:40:24;;;;;;;5.07;2.00;;;11.90;90.30;;;;;;5053140;28;20075;-53
2022/10/16 05:42:54;;;;;;;3.90;2.03;;;11.90;90.30;;;;;;5052837;28;20029;-50
2022/10/16 05:45:21;;;;;;;5.55;1.95;;;11.90;90.50;;;;;;5053640;28;20435;-51
2022/10/16 05:47:48;;;;;;;9.07;1.90;;;11.90;90.60;;;;;;5052251;28;20021;-52
2022/10/16 05:50:15;;;;;;;6.90;1.85;;;11.90;90.60;;;;;;5051020;28;20377;-51
2022/10/16 05:52:42;;;;;;;3.42;1.70;;;11.90;90.70;;;;;;5053304;28;20021;-52
2022/10/16 05:55:08;;;;;;;5.75;2.05;;;11.90;90.60;;;;;;5052547;28;20021;-50
2022/10/16 05:57:35;;;;;;;10.43;2.10;;;11.90;90.70;;;;;;5052747;28;20435;-50
2022/10/16 06:00:03;;;;;;;5.40;2.03;;;11.90;90.70;;;;;;5050779;28;20096;-50
2022/10/16 06:02:30;;;;;;;4.40;1.83;;;11.90;90.70;;;;;;5052083;28;20458;-51
2022/10/16 06:04:57;;;;;;;4.95;2.10;;;11.90;90.90;;;;;;5050506;28;20048;-52
2022/10/16 06:07:26;;;;;;;4.20;2.10;;;11.90;90.90;;;;;;5051947;28;20029;-48
2022/10/16 06:09:53;;;;;;;4.68;2.08;;;11.90;90.90;;;;;;5053291;28;20035;-54
2022/10/16 06:12:20;;;;;;;4.50;2.05;;;11.90;90.80;;;;;;5031580;28;20098;-52
2022/10/16 06:14:47;;;;;;;6.30;2.38;;;11.90;90.80;;;;;;5032915;28;20021;-51
2022/10/16 06:17:14;;;;;;;4.50;1.83;;;12.00;90.90;;;;;;5044499;28;20064;-50
2022/10/16 06:19:41;;;;;;;4.55;2.10;;;12.00;90.90;;;;;;5051928;28;20025;-51
2022/10/16 06:22:09;;;;;;;5.65;2.20;;;12.10;90.80;;;;;;5052750;28;20013;-50
2022/10/16 06:24:36;;;;;;;6.68;2.13;;;12.10;90.80;;;;;;5015576;28;20025;-50
2022/10/16 06:27:06;;;;;;;4.97;2.40;;;12.20;90.70;;;;;;5053030;28;20029;-51
2022/10/16 06:29:32;;;;;;;3.20;1.92;;;12.30;90.70;;;;;;5053417;28;20036;-52
2022/10/16 06:31:59;;;;;;;4.07;2.15;;;12.40;90.60;;;;;;5035093;28;20025;-52
2022/10/16 06:34:25;;;;;;;6.72;2.10;;;12.40;90.50;;;;;;5028534;28;20501;-51
2022/10/16 06:36:52;;;;;;;3.67;1.90;;;12.40;90.40;;;;;;5047128;28;20037;-49
2022/10/16 06:39:22;;;;;;;5.90;2.30;;;12.50;90.50;;;;;;5028564;28;20021;-49
2022/10/16 06:41:49;;;;;;;12.02;3.58;;;12.50;90.60;;;;;;5047391;28;20033;-54
2022/10/16 06:44:20;;;;;;;7.35;2.28;;;12.60;90.20;;;;;;5015167;28;20475;-49
2022/10/16 06:46:47;;;;;;;3.38;2.20;;;12.70;90.30;;;;;;5022776;28;20042;-51
2022/10/16 06:49:20;;;;;;;8.70;2.40;;;12.80;90.10;;;;;;5032931;28;20044;-49
2022/10/16 06:51:48;;;;;;;3.78;2.30;;;12.80;90.10;;;;;;5031266;28;20021;-49
2022/10/16 06:54:18;;;;;;;7.78;2.40;;;12.80;89.90;;;;;;5031399;28;20068;-49
2022/10/16 06:56:45;;;;;;;7.45;2.03;;;12.90;89.90;;;;;;5024488;28;20056;-51
2022/10/16 06:59:13;;;;;;;5.90;2.33;;;12.80;89.80;;;;;;5029078;28;20022;-49
2022/10/16 07:01:40;;;;;;;5.85;2.17;;;12.90;90.00;;;;;;5028707;28;20540;-51
2022/10/16 07:04:07;;;;;;;6.53;3.10;;;12.80;90.00;;;;;;5021887;28;20030;-49
2022/10/16 07:06:37;;;;;;;8.52;2.78;;;12.90;89.90;;;;;;5013426;28;20086;-51
2022/10/16 07:09:08;;;;;;;6.40;2.53;;;12.80;89.80;;;;;;5029067;28;20057;-51
2022/10/16 07:11:38;;;;;;;5.07;2.40;;;12.90;89.80;;;;;;5025093;28;20087;-51
2022/10/16 07:14:05;;;;;;;5.22;2.90;;;12.90;90.00;;;;;;5020574;28;20025;-50
2022/10/16 07:16:32;;;;;;;6.20;2.33;;;12.90;89.90;;;;;;5026052;28;20083;-51
2022/10/16 07:19:01;;;;;;;5.05;2.55;;;12.80;90.00;;;;;;5013597;28;20029;-52
2022/10/16 07:21:31;;;;;;;5.13;2.40;;;12.80;90.10;;;;;;5011232;28;20152;-49
2022/10/16 07:23:59;;;;;;;;;;;12.90;90.10;;;;;;5027498;28;20029;-48
2022/10/16 07:26:27;;;;;;;8.35;3.13;;;12.90;90.20;;;;;;5023200;28;20284;-50
2022/10/16 07:28:54;;;;;;;5.93;3.30;;;12.90;90.20;;;;;;5012005;28;20041;-49
2022/10/16 07:31:24;;;;;;;4.63;3.00;;;12.90;90.20;;;;;;5022615;28;20391;-50
2022/10/16 07:33:54;;;;;;;4.95;2.90;;;13.10;90.30;;;;;;5010860;28;20040;-53
2022/10/16 07:36:21;;;;;;;5.10;2.83;;;13.30;90.20;;;;;;5020900;28;20176;-50
2022/10/16 07:38:48;;;;;;;8.00;3.25;;;13.40;89.90;;;;;;5035652;28;20076;-53
2022/10/16 07:41:20;;;;;;;7.78;3.75;;;13.60;89.60;;;;;;5034614;28;20033;-47
2022/10/16 07:43:48;;;;;;;9.68;3.13;;;13.70;89.10;;;;;;5013353;28;20049;-50
2022/10/16 07:46:16;;;;;;;4.35;2.67;;;13.70;88.70;;;;;;5044360;28;20053;-50
2022/10/16 07:48:46;;;;;;;4.82;2.95;;;13.80;88.80;;;;;;5036204;28;20029;-52
2022/10/16 07:51:15;;;;;;;;;;;13.80;89.10;;;;;;5030363;28;20087;-49
2022/10/16 07:53:42;;;;;;;6.78;3.28;;;13.90;89.10;;;;;;5035759;28;19920;-50
2022/10/16 07:56:08;;;;;;;7.68;3.38;;;13.90;88.90;;;;;;5035156;28;20041;-51
2022/10/16 07:58:38;;;;;;;11.38;3.42;;;13.90;88.90;;;;;;5035061;28;20025;-49
2022/10/16 08:01:10;;;;;;;5.03;2.58;;;13.90;88.80;;;;;;5031027;28;20087;-47
2022/10/16 08:03:37;;;;;;;5.95;2.72;;;13.90;88.90;;;;;;5006332;28;20041;-53
2022/10/16 08:06:05;;;;;;;5.65;3.00;;;14.00;88.70;;;;;;5016188;28;20045;-50
2022/10/16 08:08:31;;;;;;;6.90;3.00;;;14.10;88.50;;;;;;5034321;28;20033;-53
2022/10/16 08:10:58;;;;;;;8.68;2.75;;;14.10;88.40;;;;;;5016914;28;20059;-49
2022/10/16 08:13:26;;;;;;;5.97;2.28;;;14.20;88.20;;;;;;5015813;28;20040;-47
2022/10/16 08:15:54;;;;;;;11.73;2.78;;;14.20;88.10;;;;;;5034565;28;20075;-48
2022/10/16 08:18:21;;;;;;;5.80;2.50;;;14.10;87.60;;;;;;5035341;28;20026;-48
2022/10/16 08:20:54;;;;;;;7.57;2.40;;;14.20;87.70;;;;;;5043264;28;20033;-49
2022/10/16 08:23:21;;;;;;;6.60;2.60;;;14.20;87.40;;;;;;5015554;28;20065;-51
2022/10/16 08:25:48;;;;;;;6.00;2.22;;;14.40;87.10;;;;;;5017128;28;20025;-49
2022/10/16 08:28:14;;;;;;;5.15;2.13;;;14.40;87.30;;;;;;5026111;28;20029;-46
2022/10/16 08:30:41;;;;;;;3.05;1.80;;;14.50;86.80;;;;;;5025204;28;20030;-47
2022/10/16 08:33:12;;;;;;;6.35;2.47;;;14.70;86.90;;;;;;5015429;28;20371;-50
2022/10/16 08:35:39;;;;;;;5.82;2.15;;;14.90;86.20;;;;;;5028652;28;20037;-48
2022/10/16 08:38:07;;;;;;;5.93;2.38;;;15.10;85.40;;;;;;5034384;28;20422;-50
2022/10/16 08:40:37;;;;;;;8.65;2.58;;;15.40;85.40;;;;;;5032973;28;20030;-50
2022/10/16 08:43:43;;;;;;;5.72;2.10;;;15.50;85.20;;;;;;5038277;28;20033;-50
2022/10/16 08:47:00;;;;;;;7.88;2.72;;;15.50;84.60;;;;;;5028929;28;20057;-48
2022/10/16 08:49:29;;;;;;;7.60;2.15;;;15.80;84.20;;;;;;4990019;28;20049;-50
2022/10/16 08:51:57;;;;;;;6.38;2.25;;;16.00;82.70;;;;;;5034100;28;20029;-49
2022/10/16 08:54:31;;;;;;;5.45;1.65;;;16.10;82.30;;;;;;5033891;28;20026;-46
2022/10/16 08:57:09;;;;;;;9.73;2.53;;;16.20;81.50;;;;;;5033848;28;20037;-49
2022/10/16 08:59:36;;;;;;;3.60;1.75;;;16.40;80.70;;;;;;5030878;28;20026;-51
2022/10/16 09:02:31;;;;;;;11.95;3.00;;;16.30;80.60;;;;;;5032904;28;20123;-50
2022/10/16 09:05:17;;;;;;;15.73;2.63;;;16.30;80.40;;;;;;5015168;28;20022;-47
2022/10/16 09:07:58;;;;;;;6.50;2.08;;;16.40;79.60;;;;;;5027290;28;20081;-49
2022/10/16 09:10:42;;;;;;;4.70;1.77;;;16.40;80.60;;;;;;5032524;28;20072;-51
2022/10/16 09:13:28;;;;;;;9.27;2.58;;;16.40;79.70;;;;;;5032013;28;20033;-48
2022/10/16 09:16:18;;;;;;;5.55;1.55;;;16.50;79.40;;;;;;5049305;28;20064;-48
2022/10/16 09:19:17;;;;;;;7.63;1.63;;;16.40;79.60;;;;;;5031452;28;20075;-48
2022/10/16 09:21:48;;;;;;;4.90;1.30;;;16.30;80.20;;;;;;5033122;28;20658;-48
2022/10/16 09:24:20;;;;;;;6.03;1.27;;;16.20;80.00;;;;;;5026259;28;20041;-49
2022/10/16 09:26:47;;;;;;;6.38;1.90;;;16.10;80.10;;;;;;5013718;28;20091;-48
2022/10/16 09:29:16;;;;;;;8.70;2.17;;;16.20;80.80;;;;;;5034162;28;20363;-48
2022/10/16 09:31:43;;;;;;;6.47;2.15;;;16.20;80.30;;;;;;5034022;28;20101;-47
2022/10/16 09:34:30;;;;;;;6.22;2.42;;;16.20;79.80;;;;;;5033832;28;20087;-49
2022/10/16 09:36:58;;;;;;;7.07;2.22;;;16.30;80.30;;;;;;5029586;28;20037;-49
2022/10/16 09:39:25;;;;;;;7.18;1.67;;;16.40;79.70;;;;;;5014288;28;20080;-49
2022/10/16 09:41:53;;;;;;;7.68;2.05;;;16.50;78.30;;;;;;5030714;28;20073;-47
2022/10/16 09:44:27;;;;;;;5.30;1.50;;;16.60;78.30;;;;;;5022039;28;20092;-50
2022/10/16 09:47:04;;;;;;;7.20;1.88;;;16.60;79.30;;;;;;5051795;28;20086;-50
2022/10/16 09:49:31;;;;;;;8.57;1.58;;;16.80;78.90;;;;;;5052786;28;20091;-51
2022/10/16 09:52:25;;;;;;;4.57;1.63;;;16.90;79.40;;;;;;5046790;28;20028;-52
2022/10/16 09:54:55;;;;;;;4.20;1.48;;;17.00;78.20;;;;;;5031882;28;20056;-53
2022/10/16 09:57:22;;;;;;;9.00;1.50;;;16.70;77.80;;;;;;5050308;28;20029;-51
2022/10/16 09:59:54;;;;;;;7.13;1.95;;;16.60;77.60;;;;;;5052521;28;20013;-49
2022/10/16 10:02:31;;;;;;;5.15;1.42;;;16.70;78.20;;;;;;5034670;28;20028;-51
2022/10/16 10:05:00;;;;;;;6.35;2.70;;;16.60;78.30;;;;;;5051852;28;20525;-50
2022/10/16 10:07:32;;;;;;;6.63;1.70;;;16.70;78.30;;;;;;5042270;28;20095;-46
2022/10/16 10:10:01;;;;;;;9.55;2.35;;;16.60;77.50;;;;;;5033447;28;20030;-48
2022/10/16 10:12:31;;;;;;;7.22;1.58;;;16.40;77.40;;;;;;5051366;28;20055;-50
2022/10/16 10:15:11;;;;;;;6.95;2.10;;;16.20;78.50;;;;;;5053575;28;20044;-49
2022/10/16 10:17:56;;;;;;;5.28;1.90;;;16.10;79.30;;;;;;5035837;28;20043;-45
2022/10/16 10:20:34;;;;;;;4.72;1.70;;;16.20;78.80;;;;;;5051432;28;20106;-46
2022/10/16 10:23:23;;;;;;;8.15;1.83;;;16.20;79.80;;;;;;5053524;28;20048;-46
2022/10/16 10:26:07;;;;;;;5.72;1.67;;;16.20;79.20;;;;;;5051421;28;20029;-48
2022/10/16 10:28:44;;;;;;;6.97;2.50;;;16.20;79.40;;;;;;5053293;28;20035;-46
2022/10/16 10:31:24;;;;;;;7.20;1.60;;;16.10;79.60;;;;;;5052285;28;20033;-47
2022/10/16 10:33:57;;;;;;;12.77;3.15;;;16.20;80.20;;;;;;5053217;28;20021;-47
2022/10/16 10:36:32;;;;;;;6.45;1.83;;;16.40;79.40;;;;;;5052264;28;20025;-49
2022/10/16 10:39:25;;;;;;;10.13;2.35;;;16.50;79.30;;;;;;5052943;28;20052;-49
2022/10/16 10:42:28;;;;;;;8.52;1.52;;;16.40;78.20;;;;;;5052554;28;20021;-48
2022/10/16 10:45:39;;;;;;;7.22;1.27;;;16.30;78.30;;;;;;5032914;28;20110;-48
2022/10/16 10:48:23;;;;;;;7.45;2.83;;;16.10;78.90;;;;;;5029464;28;20053;-47
2022/10/16 10:51:34;;;;;;;8.55;2.20;;;15.90;79.80;;;;;;5049685;28;20037;-48
2022/10/16 10:54:20;;;;;;;13.10;2.60;;;15.70;79.90;;;;;;4958563;28;20094;-48
2022/10/16 10:57:10;;;;;;;5.60;1.42;;;15.90;80.00;;;;;;5033930;28;20819;-49
2022/10/16 11:00:02;;;;;;;5.30;1.67;;;16.10;79.80;;;;;;5052866;28;20032;-50
2022/10/16 11:02:54;;;;;;;6.03;1.60;;;16.30;78.80;;;;;;5051664;28;20021;-48
2022/10/16 11:05:57;;;;;;;9.40;3.05;;;16.30;77.90;;;;;;5052105;28;20033;-50
2022/10/16 11:08:33;;;;;;;6.95;2.00;;;16.30;76.90;;;;;;5049435;28;20060;-49
2022/10/16 11:11:11;;;;;;;11.85;2.38;;;16.40;77.10;;;;;;5049926;28;20040;-49
2022/10/16 11:13:57;;;;;;;6.72;2.22;;;16.40;77.10;;;;;;5049921;28;20107;-49
2022/10/16 11:16:52;;;;;;;6.55;1.73;;;16.40;77.60;;;;;;5034099;28;20021;-53
2022/10/16 11:19:53;;;;;;;6.07;2.15;;;16.20;77.00;;;;;;5051587;28;20017;-50
2022/10/16 11:22:25;;;;;;;7.53;1.80;;;16.10;77.50;;;;;;5048068;28;20036;-48
2022/10/16 11:25:16;;;;;;;7.82;2.28;;;16.40;75.30;;;;;;5050785;28;20033;-51
2022/10/16 11:28:08;;;;;;;8.07;2.08;;;16.50;74.90;;;;;;5044111;28;20751;-48
2022/10/16 11:31:09;;;;;;;6.93;1.77;;;16.60;74.30;;;;;;5052146;28;20037;-47
2022/10/16 11:33:51;;;;;;;9.38;2.83;;;16.70;72.80;;;;;;4962329;28;20114;-45
2022/10/16 11:36:40;;;;;;;17.15;2.63;;;16.50;73.40;;;;;;5050557;28;20041;-47
2022/10/16 11:39:26;;;;;;;9.88;2.00;;;16.30;74.60;;;;;;5049900;28;20021;-48
2022/10/16 11:42:16;;;;;;;9.70;2.63;;;16.30;75.60;;;;;;5046567;28;20051;-45
2022/10/16 11:45:06;;;;;;;6.97;2.53;;;16.40;75.30;;;;;;5039500;28;20057;-48
2022/10/16 11:48:00;;;;;;;6.55;2.33;;;16.60;75.70;;;;;;5051901;28;20357;-46
2022/10/16 11:50:59;;;;;;;10.75;2.72;;;16.50;74.10;;;;;;5050331;28;20075;-47
2022/10/16 11:53:43;;;;;;;12.55;2.45;;;16.30;73.10;;;;;;5049013;28;20079;-46
2022/10/16 11:56:16;;;;;;;7.20;1.80;;;16.40;72.80;;;;;;5049632;28;20072;-48
2022/10/16 11:59:01;;;;;;;5.85;2.15;;;16.60;73.00;;;;;;5032248;28;20090;-46
2022/10/16 12:02:09;;;;;;;10.13;2.05;;;16.70;72.50;;;;;;5029535;28;20450;-47
2022/10/16 12:04:47;;;;;;;7.68;1.92;;;16.80;71.30;;;;;;5039324;28;20520;-47
2022/10/16 12:07:30;;;;;;;11.43;1.92;;;16.80;72.70;;;;;;5048880;28;20082;-48
2022/10/16 12:10:00;;;;;;;10.50;2.17;;;16.90;72.70;;;;;;5031807;28;20032;-47
2022/10/16 12:12:50;;;;;;;10.18;2.42;;;17.00;71.90;;;;;;5038628;28;20033;-49
2022/10/16 12:15:28;;;;;;;14.40;3.08;;;16.90;71.30;;;;;;5032283;28;20064;-47
2022/10/16 12:17:55;;;;;;;10.25;3.03;;;16.90;72.00;;;;;;5050189;28;20091;-47
2022/10/16 12:20:36;;;;;;;10.63;2.50;;;16.90;72.40;;;;;;5033935;28;20064;-49
2022/10/16 12:23:22;;;;;;;11.65;2.60;;;16.80;72.60;;;;;;5050230;28;20077;-47
2022/10/16 12:25:56;;;;;;;12.63;2.83;;;16.50;72.50;;;;;;5051913;28;20399;-46
2022/10/16 12:28:31;;;;;;;10.55;2.38;;;16.40;73.00;;;;;;5032619;28;20147;-47
2022/10/16 12:31:05;;;;;;;8.82;2.17;;;16.50;72.10;;;;;;5035467;28;20037;-47
2022/10/16 12:33:39;;;;;;;9.02;2.38;;;16.50;72.10;;;;;;5048503;28;20446;-47
2022/10/16 12:36:18;;;;;;;7.38;2.03;;;16.60;72.40;;;;;;5055188;28;20037;-48
2022/10/16 12:38:52;;;;;;;8.93;2.33;;;16.70;71.30;;;;;;5048316;28;20044;-49
2022/10/16 12:41:35;;;;;;;8.18;1.70;;;16.70;70.90;;;;;;5053385;28;20025;-49
2022/10/16 12:44:02;;;;;;;11.98;2.10;;;16.80;71.00;;;;;;5036923;28;20064;-50
2022/10/16 12:46:28;;;;;;;7.22;1.98;;;16.90;70.60;;;;;;5053561;28;20048;-49
2022/10/16 12:49:28;;;;;;;7.20;1.80;;;16.90;71.60;;;;;;5053977;28;20319;-49
2022/10/16 12:51:58;;;;;;;13.40;2.85;;;16.90;72.30;;;;;;5045879;28;20041;-49
2022/10/16 12:54:45;;;;;;;10.13;2.17;;;16.80;71.00;;;;;;5036280;28;20033;-49
2022/10/16 12:57:48;;;;;;;11.20;2.20;;;16.90;71.60;;;;;;5054142;28;20037;-48
2022/10/16 13:00:45;;;;;;;6.68;2.35;;;16.90;70.80;;;;;;5053678;28;20020;-48
2022/10/16 13:03:26;;;;;;;9.57;3.03;;;16.90;70.20;;;;;;5035925;28;20445;-47
2022/10/16 13:06:13;;;;;;;13.48;2.80;;;16.90;70.80;;;;;;5033870;28;20123;-49
2022/10/16 13:09:17;;;;;;;9.00;1.95;;;17.00;69.60;;;;;;5047423;28;20071;-49
2022/10/16 13:12:11;;;;;;;10.35;2.47;;;17.00;69.50;;;;;;5053711;28;20473;-49
2022/10/16 13:14:52;;;;;;;9.77;2.17;;;17.00;70.00;;;;;;5049163;28;20431;-51
2022/10/16 13:17:31;;;;;;;9.43;2.97;;;17.10;70.20;;;;;;5047976;28;20036;-48
2022/10/16 13:20:24;;;;;;;9.30;2.10;;;17.20;69.80;;;;;;5036191;28;20057;-49